Time;durP1;ratioP1;P1;durP2;ratioP2;P2;SDS_P1;SDS_P2;PMS_P1;PMS_P2;Temp;Humidity;BMP_temperature;BMP_pressure;BME280_temperature;BME280_humidity;BME280_pressure;Samples;Min_cycle;Max_cycle;Signal;HPM_P1;HPM_P2
2021/03/17 00:01:48;;;;;;;12.30;5.55;;;5.30;86.50;;;;;;5114772;28;20085;-36
2021/03/17 00:04:14;;;;;;;11.02;5.93;;;5.30;86.30;;;;;;5114526;28;20023;-36
2021/03/17 00:06:39;;;;;;;5.68;4.25;;;5.30;86.40;;;;;;5114528;28;20328;-37
2021/03/17 00:09:05;;;;;;;8.88;6.25;;;5.40;86.20;;;;;;5114780;28;20460;-36
2021/03/17 00:11:32;;;;;;;6.95;4.43;;;5.30;86.60;;;;;;5114329;28;20042;-36
2021/03/17 00:13:58;;;;;;;10.07;5.50;;;5.40;86.00;;;;;;5114354;28;20379;-36
2021/03/17 00:16:23;;;;;;;9.32;4.97;;;5.40;85.00;;;;;;5114630;28;20020;-36
2021/03/17 00:18:51;;;;;;;9.35;5.65;;;5.30;86.00;;;;;;5114848;28;20492;-36
2021/03/17 00:21:16;;;;;;;7.15;5.05;;;5.20;86.20;;;;;;5114495;28;20081;-37
2021/03/17 00:23:42;;;;;;;10.68;6.43;;;5.20;86.60;;;;;;5114534;28;20460;-36
2021/03/17 00:26:08;;;;;;;8.43;4.70;;;5.20;86.40;;;;;;5114083;28;20028;-36
2021/03/17 00:28:33;;;;;;;7.13;5.50;;;5.20;86.30;;;;;;5114391;28;20088;-36
2021/03/17 00:30:59;;;;;;;14.50;5.20;;;5.30;86.20;;;;;;5114103;28;20140;-36
2021/03/17 00:33:24;;;;;;;13.13;6.88;;;5.30;86.10;;;;;;5114432;28;20420;-36
2021/03/17 00:35:50;;;;;;;8.30;5.68;;;5.30;86.60;;;;;;5113773;28;20464;-36
2021/03/17 00:38:16;;;;;;;10.75;6.70;;;5.30;86.60;;;;;;5114041;28;20072;-36
2021/03/17 00:40:41;;;;;;;10.93;7.68;;;5.30;87.10;;;;;;5113930;28;20027;-37
2021/03/17 00:43:07;;;;;;;11.52;7.30;;;5.30;87.40;;;;;;5114356;28;20035;-36
2021/03/17 00:45:33;;;;;;;15.43;8.27;;;5.20;88.10;;;;;;5113874;28;20110;-37
2021/03/17 00:47:58;;;;;;;11.25;9.00;;;5.20;88.00;;;;;;5112532;28;20036;-37
2021/03/17 00:50:24;;;;;;;10.63;8.45;;;5.20;88.20;;;;;;5114129;28;20032;-36
2021/03/17 00:52:50;;;;;;;7.00;6.25;;;5.20;88.70;;;;;;5114066;28;20024;-37
2021/03/17 00:55:16;;;;;;;13.70;8.00;;;5.00;88.70;;;;;;5113753;28;20467;-36
2021/03/17 00:57:42;;;;;;;16.80;7.82;;;5.00;89.00;;;;;;5114014;28;20031;-36
2021/03/17 01:00:10;;;;;;;10.15;7.57;;;5.00;89.30;;;;;;5113948;28;20400;-36
2021/03/17 01:02:37;;;;;;;10.70;6.55;;;5.20;88.40;;;;;;5113579;28;20019;-36
2021/03/17 01:05:03;;;;;;;16.63;7.00;;;5.20;87.90;;;;;;5113458;28;20066;-36
2021/03/17 01:07:29;;;;;;;9.30;6.35;;;5.20;87.80;;;;;;5112550;28;20038;-36
2021/03/17 01:09:55;;;;;;;11.57;5.82;;;5.10;87.50;;;;;;5113534;28;20451;-36
2021/03/17 01:12:21;;;;;;;9.32;5.60;;;5.20;87.30;;;;;;5113607;28;20027;-36
2021/03/17 01:14:46;;;;;;;12.32;5.93;;;5.30;87.20;;;;;;5113673;28;20095;-36
2021/03/17 01:17:12;;;;;;;10.82;5.93;;;5.20;87.00;;;;;;5114191;28;20062;-36
2021/03/17 01:19:38;;;;;;;9.93;5.13;;;5.20;87.00;;;;;;5113440;28;20158;-37
2021/03/17 01:22:04;;;;;;;10.52;4.90;;;5.20;86.90;;;;;;5113592;28;20085;-36
2021/03/17 01:24:30;;;;;;;12.85;7.28;;;5.00;87.40;;;;;;5113499;28;20531;-37
2021/03/17 01:26:56;;;;;;;10.38;5.18;;;5.00;88.10;;;;;;5113472;28;20066;-37
2021/03/17 01:29:22;;;;;;;8.68;5.35;;;5.00;87.70;;;;;;5113264;28;20023;-36
2021/03/17 01:31:47;;;;;;;8.50;5.53;;;5.20;87.00;;;;;;5113427;28;20073;-36
2021/03/17 01:34:13;;;;;;;13.35;6.53;;;5.20;86.80;;;;;;5113631;28;20440;-36
2021/03/17 01:36:39;;;;;;;8.77;5.65;;;5.20;86.80;;;;;;5113452;28;20051;-36
2021/03/17 01:39:05;;;;;;;10.00;4.90;;;5.20;87.40;;;;;;5113295;28;20024;-36
2021/03/17 01:41:31;;;;;;;8.98;5.88;;;5.20;87.20;;;;;;5113646;28;20057;-36
2021/03/17 01:43:57;;;;;;;8.77;6.18;;;5.20;86.90;;;;;;5112161;28;20046;-36
2021/03/17 01:46:23;;;;;;;10.80;5.60;;;5.20;87.30;;;;;;5112211;28;20035;-36
2021/03/17 01:48:49;;;;;;;10.88;6.20;;;5.10;87.50;;;;;;5117530;28;20459;-35
2021/03/17 01:51:16;;;;;;;8.25;5.53;;;5.20;86.50;;;;;;5117192;28;20107;-35
2021/03/17 01:53:42;;;;;;;15.43;7.85;;;5.10;86.70;;;;;;5115856;28;20045;-36
2021/03/17 01:56:08;;;;;;;10.88;6.22;;;5.20;87.00;;;;;;5117064;28;20098;-36
2021/03/17 01:58:36;;;;;;;8.95;6.35;;;5.10;86.90;;;;;;5115810;28;20039;-36
2021/03/17 02:01:02;;;;;;;8.45;5.80;;;5.20;86.90;;;;;;5117512;27;20058;-36
2021/03/17 02:03:28;;;;;;;12.50;8.25;;;5.10;87.50;;;;;;5116915;27;20034;-36
2021/03/17 02:05:54;;;;;;;11.93;6.65;;;5.00;87.40;;;;;;5116875;28;20383;-36
2021/03/17 02:08:29;;;;;;;8.38;6.45;;;5.00;88.30;;;;;;5116652;28;20112;-36
2021/03/17 02:10:54;;;;;;;10.32;7.93;;;5.00;87.80;;;;;;5117048;28;20034;-36
2021/03/17 02:13:30;;;;;;;12.07;8.55;;;5.00;87.70;;;;;;5115255;28;20027;-36
2021/03/17 02:16:21;;;;;;;12.60;9.25;;;5.00;88.00;;;;;;5115032;28;20023;-39
2021/03/17 02:19:05;;;;;;;14.18;9.50;;;5.10;87.30;;;;;;5116622;28;20023;-36
2021/03/17 02:21:52;;;;;;;11.82;7.45;;;5.10;87.10;;;;;;5116301;28;20051;-36
2021/03/17 02:24:48;;;;;;;11.60;8.15;;;5.00;86.70;;;;;;5116301;28;20103;-36
2021/03/17 02:27:51;;;;;;;11.77;8.30;;;5.00;86.70;;;;;;5116185;28;20114;-36
2021/03/17 02:30:36;;;;;;;11.02;7.97;;;5.00;87.00;;;;;;5116614;28;20035;-36
2021/03/17 02:33:40;;;;;;;11.35;7.35;;;4.90;86.70;;;;;;5116366;28;20019;-36
2021/03/17 02:36:26;;;;;;;10.65;6.93;;;4.90;86.60;;;;;;5114978;28;20144;-36
2021/03/17 02:39:01;;;;;;;9.60;7.32;;;4.80;86.60;;;;;;5115932;28;20103;-36
2021/03/17 02:41:31;;;;;;;11.85;7.75;;;4.80;87.10;;;;;;5116454;28;20030;-36
2021/03/17 02:44:00;;;;;;;12.70;8.60;;;4.80;87.10;;;;;;5114852;28;20130;-36
2021/03/17 02:46:27;;;;;;;12.55;8.85;;;4.70;87.10;;;;;;5115968;28;20397;-37
2021/03/17 02:49:02;;;;;;;13.23;9.45;;;4.80;87.40;;;;;;5116049;28;20031;-36
2021/03/17 02:51:37;;;;;;;13.60;9.20;;;4.80;87.40;;;;;;5116103;28;20030;-36
2021/03/17 02:54:05;;;;;;;15.88;10.48;;;4.70;87.50;;;;;;5116740;28;20102;-36
2021/03/17 02:56:37;;;;;;;13.45;10.85;;;4.70;87.90;;;;;;5115906;28;20016;-36
2021/03/17 02:59:04;;;;;;;14.60;11.18;;;4.70;87.80;;;;;;5115716;28;20064;-36
2021/03/17 03:01:31;;;;;;;14.35;10.13;;;4.60;87.80;;;;;;5115823;28;20051;-36
2021/03/17 03:03:57;;;;;;;15.57;9.43;;;4.60;87.60;;;;;;5115845;28;20030;-36
2021/03/17 03:06:25;;;;;;;14.45;10.48;;;4.70;87.70;;;;;;5116126;28;20027;-36
2021/03/17 03:08:52;;;;;;;12.32;8.93;;;4.80;87.80;;;;;;5114554;28;20024;-36
2021/03/17 03:11:18;;;;;;;8.82;7.13;;;4.80;87.90;;;;;;5116077;28;20020;-36
2021/03/17 03:13:45;;;;;;;12.13;7.47;;;4.80;87.60;;;;;;5115824;28;20042;-36
2021/03/17 03:16:13;;;;;;;9.80;7.72;;;4.70;88.00;;;;;;5116772;28;20516;-36
2021/03/17 03:18:41;;;;;;;10.88;6.35;;;4.70;87.90;;;;;;5116342;28;20114;-36
2021/03/17 03:21:08;;;;;;;6.07;5.30;;;4.70;88.10;;;;;;5115680;28;20445;-36
2021/03/17 03:23:34;;;;;;;7.22;5.70;;;4.60;87.60;;;;;;5115475;28;20055;-36
2021/03/17 03:26:01;;;;;;;6.72;5.40;;;4.50;88.30;;;;;;5115216;28;20034;-36
2021/03/17 03:28:27;;;;;;;5.40;4.20;;;4.60;88.00;;;;;;5115478;28;20020;-36
2021/03/17 03:30:54;;;;;;;6.53;5.05;;;4.50;88.20;;;;;;5116065;28;20053;-36
2021/03/17 03:33:21;;;;;;;7.32;5.78;;;4.70;88.00;;;;;;5115010;28;20048;-37
2021/03/17 03:35:49;;;;;;;4.85;4.05;;;4.70;88.00;;;;;;5115307;28;20038;-36
2021/03/17 03:38:17;;;;;;;5.25;4.50;;;4.50;88.40;;;;;;5115014;28;20078;-36
2021/03/17 03:40:43;;;;;;;6.68;4.95;;;4.40;89.40;;;;;;5115247;28;20034;-37
2021/03/17 03:43:11;;;;;;;4.47;3.97;;;4.40;89.20;;;;;;5114989;28;20024;-36
2021/03/17 03:45:39;;;;;;;8.07;4.47;;;4.50;88.50;;;;;;5115243;28;20497;-36
2021/03/17 03:48:06;;;;;;;5.63;4.25;;;4.40;88.70;;;;;;5114673;27;20047;-36
2021/03/17 03:50:36;;;;;;;6.53;4.40;;;4.50;88.50;;;;;;5115108;28;20023;-36
2021/03/17 03:53:26;;;;;;;4.93;4.00;;;4.40;88.60;;;;;;5114734;28;20023;-36
2021/03/17 03:55:55;;;;;;;3.93;3.53;;;4.50;88.50;;;;;;5114766;28;20020;-36
2021/03/17 03:58:45;;;;;;;5.68;4.75;;;4.50;88.70;;;;;;5114940;28;20019;-36
2021/03/17 04:01:31;;;;;;;5.97;4.43;;;4.40;88.80;;;;;;5115227;28;20468;-48
2021/03/17 04:04:03;;;;;;;4.45;3.72;;;4.50;88.60;;;;;;5113279;28;20270;-36
2021/03/17 04:06:31;;;;;;;4.70;3.75;;;4.50;88.10;;;;;;5114869;28;20024;-36
2021/03/17 04:09:00;;;;;;;5.05;4.55;;;4.40;88.10;;;;;;5113798;28;20019;-36
2021/03/17 04:11:26;;;;;;;5.43;4.15;;;4.50;88.10;;;;;;5112915;28;20024;-36
2021/03/17 04:13:52;;;;;;;5.05;4.00;;;4.50;88.20;;;;;;5114594;28;20031;-36
2021/03/17 04:16:21;;;;;;;7.07;3.88;;;4.50;88.20;;;;;;5114238;28;20066;-36
2021/03/17 04:18:49;;;;;;;4.38;3.55;;;4.50;87.80;;;;;;5115002;28;20102;-36
2021/03/17 04:21:22;;;;;;;6.30;3.80;;;4.40;88.20;;;;;;5113290;28;20024;-36
2021/03/17 04:23:50;;;;;;;4.38;3.85;;;4.50;88.20;;;;;;5112993;28;20146;-36
2021/03/17 04:26:18;;;;;;;5.35;4.07;;;4.40;88.80;;;;;;5114055;28;20024;-37
2021/03/17 04:28:47;;;;;;;8.18;5.03;;;4.40;88.00;;;;;;5114274;28;20131;-36
2021/03/17 04:31:14;;;;;;;5.20;4.22;;;4.50;88.20;;;;;;5114601;28;20024;-36
2021/03/17 04:33:40;;;;;;;4.13;3.53;;;4.50;88.30;;;;;;5114065;28;20383;-36
2021/03/17 04:36:08;;;;;;;6.70;4.35;;;4.40;88.10;;;;;;5114181;28;20416;-36
2021/03/17 04:38:35;;;;;;;4.38;3.95;;;4.30;89.30;;;;;;5113896;28;20050;-36
2021/03/17 04:41:02;;;;;;;5.60;4.00;;;4.40;89.50;;;;;;5114023;28;20023;-36
2021/03/17 04:43:28;;;;;;;5.53;4.28;;;4.60;88.30;;;;;;5114236;28;20115;-36
2021/03/17 04:45:54;;;;;;;4.78;3.92;;;4.60;88.40;;;;;;5113866;28;20055;-36
2021/03/17 04:48:21;;;;;;;5.20;4.38;;;4.60;88.30;;;;;;5113643;28;20040;-36
2021/03/17 04:50:50;;;;;;;5.15;4.65;;;4.60;88.30;;;;;;5114043;28;20158;-36
2021/03/17 04:53:16;;;;;;;4.88;4.38;;;4.70;88.70;;;;;;5114308;28;20011;-36
2021/03/17 04:55:42;;;;;;;6.68;4.80;;;4.70;88.40;;;;;;5113767;28;20459;-36
2021/03/17 04:58:15;;;;;;;4.85;4.35;;;4.60;88.50;;;;;;5113764;27;20047;-36
2021/03/17 05:00:42;;;;;;;6.43;5.57;;;4.70;88.30;;;;;;5113715;28;20019;-36
2021/03/17 05:03:11;;;;;;;5.00;4.00;;;4.70;88.60;;;;;;5113590;28;20035;-36
2021/03/17 05:05:39;;;;;;;11.68;5.40;;;4.70;88.60;;;;;;5113469;28;20034;-36
2021/03/17 05:08:06;;;;;;;6.85;5.13;;;4.80;88.40;;;;;;5114007;28;20118;-36
2021/03/17 05:10:33;;;;;;;5.05;4.15;;;4.70;88.50;;;;;;5113975;28;20016;-36
2021/03/17 05:13:00;;;;;;;5.82;5.25;;;4.70;88.80;;;;;;5113726;28;20031;-36
2021/03/17 05:15:26;;;;;;;6.68;5.60;;;4.70;89.00;;;;;;5113498;28;20027;-36
2021/03/17 05:17:52;;;;;;;7.47;6.13;;;4.70;89.20;;;;;;5114058;28;20024;-36
2021/03/17 05:20:20;;;;;;;6.47;5.45;;;4.70;89.50;;;;;;5112436;28;20024;-36
2021/03/17 05:22:48;;;;;;;7.13;5.35;;;4.60;89.60;;;;;;5117704;27;20027;-36
2021/03/17 05:25:17;;;;;;;5.53;5.00;;;4.60;89.70;;;;;;5118013;28;20020;-36
2021/03/17 05:27:46;;;;;;;6.38;5.40;;;4.60;89.70;;;;;;5117586;28;20156;-36
2021/03/17 05:30:13;;;;;;;6.63;4.60;;;4.50;89.50;;;;;;5117478;28;20027;-36
2021/03/17 05:32:41;;;;;;;5.95;5.32;;;4.50;89.80;;;;;;5118019;28;20113;-36
2021/03/17 05:35:09;;;;;;;6.15;4.55;;;4.70;89.20;;;;;;5116358;28;20491;-37
2021/03/17 05:37:36;;;;;;;9.23;5.13;;;4.60;89.60;;;;;;5117494;28;20020;-36
2021/03/17 05:40:04;;;;;;;8.35;5.97;;;4.70;89.20;;;;;;5117475;28;20066;-36
2021/03/17 05:42:30;;;;;;;7.70;4.78;;;4.60;89.60;;;;;;5117601;28;20026;-36
2021/03/17 05:44:56;;;;;;;5.70;4.65;;;4.60;89.50;;;;;;5117295;28;20028;-36
2021/03/17 05:47:22;;;;;;;6.45;5.00;;;4.60;88.50;;;;;;5117104;28;20052;-36
2021/03/17 05:49:49;;;;;;;5.07;4.57;;;4.60;88.80;;;;;;5117413;28;20027;-36
2021/03/17 05:52:16;;;;;;;5.53;4.70;;;4.50;89.30;;;;;;5117152;28;20020;-39
2021/03/17 05:54:42;;;;;;;5.00;4.50;;;4.60;89.50;;;;;;5117419;28;20049;-36
2021/03/17 05:57:09;;;;;;;6.13;4.85;;;4.80;88.70;;;;;;5117365;28;20019;-37
2021/03/17 05:59:36;;;;;;;6.80;4.72;;;4.80;89.00;;;;;;5117283;28;20084;-36
2021/03/17 06:02:02;;;;;;;3.35;2.42;;;4.80;88.40;;;;;;5117233;28;20055;-36
2021/03/17 06:04:29;;;;;;;1.88;1.73;;;4.50;87.60;;;;;;5116859;28;20054;-36
2021/03/17 06:07:00;;;;;;;4.53;1.80;;;4.10;88.00;;;;;;5117111;28;20027;-36
2021/03/17 06:09:27;;;;;;;;;;;4.00;88.70;;;;;;5116091;28;20031;-36
2021/03/17 06:11:54;;;;;;;2.13;1.88;;;3.80;89.00;;;;;;5117019;28;20351;-36
2021/03/17 06:14:22;;;;;;;3.00;1.38;;;3.70;88.80;;;;;;5117020;28;20015;-36
2021/03/17 06:16:58;;;;;;;2.03;1.92;;;3.70;87.90;;;;;;5116688;28;20019;-36
2021/03/17 06:19:27;;;;;;;3.03;1.42;;;3.50;88.20;;;;;;5116956;28;20046;-36
2021/03/17 06:21:54;;;;;;;2.15;1.35;;;3.40;88.30;;;;;;5117445;28;20024;-37
2021/03/17 06:24:20;;;;;;;4.18;1.85;;;3.40;88.50;;;;;;5116789;28;20119;-36
2021/03/17 06:26:47;;;;;;;4.03;1.42;;;3.40;88.90;;;;;;5115403;28;20455;-37
2021/03/17 06:29:14;;;;;;;7.22;2.25;;;3.50;88.30;;;;;;5116653;28;20019;-37
2021/03/17 06:31:40;;;;;;;3.15;2.20;;;3.50;87.90;;;;;;5117018;28;20047;-37
2021/03/17 06:34:06;;;;;;;5.50;3.03;;;3.60;87.60;;;;;;5115919;28;20459;-36
2021/03/17 06:36:32;;;;;;;5.57;2.90;;;3.50;88.20;;;;;;5116824;28;20027;-37
2021/03/17 06:39:09;;;;;;;6.78;2.13;;;3.50;88.00;;;;;;5116681;28;20106;-37
2021/03/17 06:41:41;;;;;;;8.98;3.03;;;3.60;88.70;;;;;;5116463;28;20069;-37
2021/03/17 06:44:08;;;;;;;10.82;2.78;;;3.50;89.00;;;;;;5116228;28;20030;-37
2021/03/17 06:46:34;;;;;;;2.95;2.53;;;3.60;88.30;;;;;;5115965;28;20119;-37
2021/03/17 06:48:59;;;;;;;7.82;2.97;;;3.80;87.80;;;;;;5116419;28;20118;-36
2021/03/17 06:51:30;;;;;;;7.10;2.88;;;3.80;87.30;;;;;;5117040;28;20024;-36
2021/03/17 06:53:59;;;;;;;3.30;2.55;;;3.90;88.30;;;;;;5116062;28;20081;-36
2021/03/17 06:56:29;;;;;;;10.77;3.25;;;3.90;87.20;;;;;;5116270;28;20034;-36
2021/03/17 06:59:00;;;;;;;10.15;2.58;;;4.00;87.00;;;;;;5116083;28;20024;-36
2021/03/17 07:01:31;;;;;;;3.60;2.40;;;3.90;87.30;;;;;;5116220;28;20474;-37
2021/03/17 07:03:59;;;;;;;4.63;2.55;;;4.00;87.40;;;;;;5115784;28;20015;-41
2021/03/17 07:06:26;;;;;;;10.63;2.55;;;4.20;85.60;;;;;;5116053;28;20423;-36
2021/03/17 07:08:52;;;;;;;7.55;2.95;;;4.10;86.20;;;;;;5115909;28;20071;-37
2021/03/17 07:11:36;;;;;;;9.82;3.67;;;4.00;86.30;;;;;;5116023;28;20369;-36
2021/03/17 07:14:04;;;;;;;9.80;2.92;;;4.20;86.70;;;;;;5115700;28;20044;-36
2021/03/17 07:16:46;;;;;;;4.88;2.33;;;4.30;86.00;;;;;;5115525;28;20023;-37
2021/03/17 07:19:30;;;;;;;7.15;2.95;;;4.30;84.70;;;;;;5115956;28;20031;-36
2021/03/17 07:22:12;;;;;;;12.82;3.10;;;4.20;84.70;;;;;;5115139;28;20024;-41
2021/03/17 07:24:39;;;;;;;8.25;2.75;;;4.20;85.00;;;;;;5115068;28;20106;-37
2021/03/17 07:27:23;;;;;;;6.50;3.03;;;4.30;84.70;;;;;;5115564;27;20038;-36
2021/03/17 07:29:58;;;;;;;7.25;2.65;;;4.30;83.90;;;;;;5114905;28;20027;-36
2021/03/17 07:32:27;;;;;;;5.32;2.65;;;4.30;83.90;;;;;;5115058;28;20023;-36
2021/03/17 07:34:53;;;;;;;9.88;3.33;;;4.40;83.80;;;;;;5114166;28;20076;-38
2021/03/17 07:37:25;;;;;;;6.55;1.80;;;4.40;83.30;;;;;;5113863;28;20106;-36
2021/03/17 07:39:51;;;;;;;6.00;3.17;;;4.30;82.90;;;;;;5115493;28;20030;-36
2021/03/17 07:42:20;;;;;;;9.70;2.95;;;4.30;82.70;;;;;;5115315;28;20050;-35
2021/03/17 07:44:47;;;;;;;5.20;1.85;;;4.30;82.70;;;;;;5114623;28;20471;-36
2021/03/17 07:47:13;;;;;;;3.10;1.95;;;4.40;82.60;;;;;;5114357;28;20491;-36
2021/03/17 07:49:42;;;;;;;16.50;4.28;;;4.70;81.70;;;;;;5114820;28;20019;-36
2021/03/17 07:52:16;;;;;;;9.05;2.58;;;4.70;81.30;;;;;;5114582;28;20455;-37
2021/03/17 07:54:48;;;;;;;6.22;1.83;;;4.80;81.30;;;;;;5114749;27;20484;-36
2021/03/17 07:57:15;;;;;;;9.65;3.25;;;4.80;80.00;;;;;;5114495;28;20463;-36
2021/03/17 07:59:41;;;;;;;3.20;2.15;;;4.80;81.10;;;;;;5114318;27;20106;-36
2021/03/17 08:02:07;;;;;;;7.72;2.10;;;4.80;81.20;;;;;;5114278;28;20038;-37
2021/03/17 08:04:33;;;;;;;5.68;2.22;;;4.70;80.90;;;;;;5115039;28;20034;-36
2021/03/17 08:07:00;;;;;;;4.97;2.15;;;4.80;81.90;;;;;;5114337;28;20027;-36
2021/03/17 08:09:27;;;;;;;2.83;2.13;;;4.50;82.90;;;;;;5114551;28;20035;-36
2021/03/17 08:11:56;;;;;;;2.28;1.88;;;4.20;83.20;;;;;;5114085;28;20020;-36
2021/03/17 08:14:23;;;;;;;7.47;1.75;;;4.10;84.20;;;;;;5114093;28;20016;-37
2021/03/17 08:16:49;;;;;;;7.78;2.15;;;4.20;84.40;;;;;;5114021;28;20019;-38
2021/03/17 08:19:25;;;;;;;2.72;1.90;;;4.20;85.80;;;;;;5114590;28;20030;-36
2021/03/17 08:21:59;;;;;;;5.68;1.95;;;4.30;84.40;;;;;;5114278;28;20383;-36
2021/03/17 08:24:32;;;;;;;4.85;2.55;;;4.20;84.30;;;;;;5113915;28;20103;-36
2021/03/17 08:27:08;;;;;;;5.50;2.88;;;4.10;83.70;;;;;;5113826;28;20475;-36
2021/03/17 08:29:41;;;;;;;8.13;2.28;;;4.20;84.40;;;;;;5113792;28;20055;-35
2021/03/17 08:32:07;;;;;;;5.03;1.63;;;4.30;85.30;;;;;;5113733;28;20043;-36
2021/03/17 08:34:35;;;;;;;6.90;1.75;;;4.40;83.90;;;;;;5113756;28;20084;-36
2021/03/17 08:37:04;;;;;;;3.47;2.38;;;4.30;84.00;;;;;;5113973;28;20489;-36
2021/03/17 08:39:29;;;;;;;6.40;2.30;;;4.30;84.60;;;;;;5113799;28;20099;-36
2021/03/17 08:42:14;;;;;;;4.00;1.60;;;4.30;82.30;;;;;;5113897;28;20421;-37
2021/03/17 08:44:39;;;;;;;7.07;1.92;;;4.20;83.30;;;;;;5114105;28;20039;-36
2021/03/17 08:47:23;;;;;;;4.85;1.90;;;4.40;83.60;;;;;;5113605;28;20131;-36
2021/03/17 08:49:51;;;;;;;3.60;2.20;;;4.60;83.70;;;;;;5113958;28;20493;-37
2021/03/17 08:52:21;;;;;;;4.68;2.67;;;4.70;82.30;;;;;;5113935;28;20020;-35
2021/03/17 08:55:00;;;;;;;7.20;2.97;;;4.60;82.70;;;;;;5113863;28;20444;-36
2021/03/17 08:57:48;;;;;;;9.43;2.65;;;4.70;83.20;;;;;;5114617;28;20020;-36
2021/03/17 09:00:34;;;;;;;5.93;2.15;;;4.50;82.00;;;;;;5114115;28;20051;-37
2021/03/17 09:03:00;;;;;;;4.97;2.58;;;4.60;82.60;;;;;;5113250;28;20015;-36
2021/03/17 09:05:29;;;;;;;5.82;2.63;;;4.80;82.20;;;;;;5114181;28;20494;-36
2021/03/17 09:08:09;;;;;;;8.02;2.83;;;4.90;81.30;;;;;;5113451;28;20035;-36
2021/03/17 09:10:46;;;;;;;10.48;2.72;;;5.10;81.80;;;;;;5113733;28;20024;-37
2021/03/17 09:13:36;;;;;;;5.78;2.80;;;5.20;81.10;;;;;;5113948;28;20024;-36
2021/03/17 09:16:05;;;;;;;9.07;3.30;;;4.80;81.40;;;;;;5113679;28;20024;-36
2021/03/17 09:18:30;;;;;;;4.45;3.00;;;4.80;82.00;;;;;;5113044;28;20034;-37
2021/03/17 09:20:56;;;;;;;6.03;2.85;;;5.10;81.50;;;;;;5113201;28;20023;-36
2021/03/17 09:23:24;;;;;;;10.43;4.22;;;5.00;80.90;;;;;;5113389;28;20024;-37
2021/03/17 09:25:55;;;;;;;7.00;2.60;;;4.90;81.30;;;;;;5112148;28;20085;-37
2021/03/17 09:28:31;;;;;;;5.85;2.72;;;4.90;81.20;;;;;;5113321;28;20049;-37
2021/03/17 09:31:03;;;;;;;4.35;2.55;;;5.10;80.30;;;;;;5113695;28;20077;-37
2021/03/17 09:33:42;;;;;;;6.07;2.83;;;5.20;80.90;;;;;;5113507;28;20058;-37
2021/03/17 09:36:18;;;;;;;7.40;2.65;;;5.20;79.90;;;;;;5113239;28;20068;-37
2021/03/17 09:38:48;;;;;;;5.35;1.98;;;5.10;77.90;;;;;;5113225;28;20027;-36
2021/03/17 09:41:17;;;;;;;6.03;1.80;;;5.00;78.30;;;;;;5111683;28;20040;-36
2021/03/17 09:43:55;;;;;;;5.93;2.25;;;5.10;77.30;;;;;;5113598;28;20057;-36
2021/03/17 09:46:36;;;;;;;12.20;2.65;;;5.20;77.00;;;;;;5112714;28;20155;-38
2021/03/17 09:49:07;;;;;;;9.27;1.98;;;5.20;77.00;;;;;;5113241;28;20032;-36
2021/03/17 09:51:34;;;;;;;;;;;5.40;75.60;;;;;;5113215;28;20073;-36
2021/03/17 09:54:03;;;;;;;3.35;1.50;;;5.80;73.80;;;;;;5112793;28;19910;-36
2021/03/17 09:56:39;;;;;;;5.63;1.63;;;6.20;70.20;;;;;;5112519;28;20063;-35
2021/03/17 09:59:15;;;;;;;13.10;3.83;;;6.60;69.80;;;;;;5112943;28;20065;-37
2021/03/17 10:01:52;;;;;;;2.20;1.42;;;7.00;69.00;;;;;;5112608;28;20137;-36
2021/03/17 10:04:23;;;;;;;2.58;1.33;;;7.00;67.80;;;;;;5112801;28;20114;-36
2021/03/17 10:06:50;;;;;;;3.67;1.50;;;7.60;67.50;;;;;;5112924;28;20082;-36
2021/03/17 10:09:16;;;;;;;4.53;1.90;;;7.40;65.00;;;;;;5115840;28;20027;-36
2021/03/17 10:11:42;;;;;;;3.70;1.20;;;7.30;65.40;;;;;;5116825;28;20348;-37
2021/03/17 10:14:17;;;;;;;2.88;1.30;;;7.60;62.80;;;;;;5116578;28;20051;-36
2021/03/17 10:16:44;;;;;;;6.10;1.65;;;6.80;62.90;;;;;;5116433;27;20026;-38
2021/03/17 10:19:16;;;;;;;1.27;0.93;;;6.30;64.10;;;;;;5116162;28;20053;-37
2021/03/17 10:21:43;;;;;;;5.00;1.05;;;7.40;60.80;;;;;;5118203;28;20428;-40
2021/03/17 10:24:11;;;;;;;3.95;1.15;;;8.20;59.00;;;;;;5116373;28;20023;-37
2021/03/17 10:26:37;;;;;;;1.90;1.35;;;8.00;56.50;;;;;;5115924;28;20356;-36
2021/03/17 10:29:08;;;;;;;5.63;2.13;;;7.50;59.00;;;;;;5116120;28;20039;-38
2021/03/17 10:31:39;;;;;;;5.90;1.50;;;6.80;58.30;;;;;;5116204;28;20375;-36
2021/03/17 10:34:13;;;;;;;4.15;1.33;;;6.50;59.70;;;;;;5116045;28;20124;-37
2021/03/17 10:36:40;;;;;;;5.50;2.97;;;6.40;60.80;;;;;;5116128;28;20486;-36
2021/03/17 10:39:06;;;;;;;2.63;1.30;;;6.40;60.30;;;;;;5116339;28;20027;-37
2021/03/17 10:41:45;;;;;;;5.60;1.38;;;6.50;60.30;;;;;;5115907;27;20027;-36
2021/03/17 10:44:13;;;;;;;3.58;1.20;;;6.10;60.10;;;;;;5116319;28;20046;-36
2021/03/17 10:46:57;;;;;;;17.20;3.97;;;5.90;61.00;;;;;;5115683;28;20493;-37
2021/03/17 10:49:23;;;;;;;3.45;1.60;;;6.20;60.70;;;;;;5115948;28;20027;-36
2021/03/17 10:51:53;;;;;;;2.25;1.27;;;6.00;59.50;;;;;;5116000;28;20032;-37
2021/03/17 10:54:30;;;;;;;9.02;2.50;;;6.00;60.50;;;;;;5116127;28;20012;-37
2021/03/17 10:56:57;;;;;;;5.97;2.28;;;5.90;59.80;;;;;;5115642;28;20023;-37
2021/03/17 10:59:28;;;;;;;2.53;1.42;;;5.80;61.20;;;;;;5115618;28;20499;-37
2021/03/17 11:02:19;;;;;;;5.70;1.60;;;5.80;62.10;;;;;;5114476;28;20110;-38
2021/03/17 11:05:03;;;;;;;8.02;2.25;;;6.10;61.60;;;;;;5115708;28;20102;-38
2021/03/17 11:07:50;;;;;;;7.18;1.73;;;6.20;62.10;;;;;;5115970;28;20111;-37
2021/03/17 11:10:48;;;;;;;8.55;1.75;;;6.10;64.90;;;;;;5115496;28;20027;-37
2021/03/17 11:13:17;;;;;;;6.30;1.77;;;6.10;66.50;;;;;;5115598;28;20467;-37
2021/03/17 11:16:00;;;;;;;5.35;2.70;;;6.20;66.80;;;;;;5115694;28;20042;-36
2021/03/17 11:18:44;;;;;;;7.35;2.58;;;6.10;68.30;;;;;;5115166;28;20020;-36
2021/03/17 11:21:34;;;;;;;5.15;2.10;;;6.20;66.60;;;;;;5115037;27;20023;-37
2021/03/17 11:24:02;;;;;;;6.25;1.60;;;6.50;67.00;;;;;;5114694;28;20470;-37
2021/03/17 11:26:37;;;;;;;11.60;2.05;;;6.60;65.40;;;;;;5113472;28;20114;-37
2021/03/17 11:29:11;;;;;;;4.95;1.60;;;6.80;65.70;;;;;;5113823;28;20034;-38
2021/03/17 11:31:37;;;;;;;4.65;1.35;;;6.80;64.20;;;;;;5115014;28;20054;-38
2021/03/17 11:34:06;;;;;;;5.50;3.20;;;7.00;63.20;;;;;;5115507;28;20491;-37
2021/03/17 11:36:31;;;;;;;4.35;1.00;;;7.20;60.20;;;;;;5115514;28;20531;-37
2021/03/17 11:38:58;;;;;;;7.55;1.65;;;6.80;57.20;;;;;;5113719;28;20047;-37
2021/03/17 11:41:26;;;;;;;10.07;1.70;;;6.90;60.10;;;;;;5114850;28;20032;-37
2021/03/17 11:43:52;;;;;;;6.53;2.00;;;7.30;58.90;;;;;;5115040;28;20020;-37
2021/03/17 11:46:18;;;;;;;4.28;1.73;;;7.40;58.80;;;;;;5114673;28;20035;-38
2021/03/17 11:48:45;;;;;;;6.03;1.75;;;7.40;58.30;;;;;;5114856;27;20031;-36
2021/03/17 11:51:11;;;;;;;2.08;0.93;;;7.60;56.20;;;;;;5114482;28;20123;-36
2021/03/17 11:53:37;;;;;;;6.50;1.20;;;7.30;57.50;;;;;;5114757;28;20102;-36
2021/03/17 11:56:05;;;;;;;3.60;1.20;;;7.10;57.10;;;;;;5114526;28;20031;-36
2021/03/17 11:58:31;;;;;;;3.22;1.15;;;6.80;55.70;;;;;;5115480;28;20031;-37
2021/03/17 12:00:56;;;;;;;3.40;1.40;;;6.90;55.40;;;;;;5114778;27;20031;-38
2021/03/17 12:03:22;;;;;;;2.28;1.15;;;7.20;55.60;;;;;;5115094;28;20032;-37
2021/03/17 12:05:48;;;;;;;3.63;1.52;;;7.20;53.90;;;;;;5114376;28;20080;-37
2021/03/17 12:08:15;;;;;;;3.45;1.02;;;7.40;53.40;;;;;;5114094;28;20110;-37
2021/03/17 12:10:41;;;;;;;5.65;1.45;;;7.60;53.70;;;;;;5114492;27;20035;-36
2021/03/17 12:13:07;;;;;;;7.85;1.55;;;7.90;53.50;;;;;;5114371;28;20045;-37
2021/03/17 12:15:34;;;;;;;3.13;1.40;;;8.30;52.30;;;;;;5114271;28;20023;-37
2021/03/17 12:18:00;;;;;;;5.65;1.40;;;8.30;51.60;;;;;;5114385;28;20417;-37
2021/03/17 12:20:27;;;;;;;6.25;1.38;;;7.80;49.50;;;;;;5113728;28;20022;-38
2021/03/17 12:22:54;;;;;;;2.40;1.50;;;7.60;51.00;;;;;;5113959;28;20067;-41
2021/03/17 12:25:20;;;;;;;3.20;1.25;;;7.50;50.40;;;;;;5114320;27;20046;-36
2021/03/17 12:27:46;;;;;;;8.73;3.38;;;7.30;50.50;;;;;;5114015;28;20015;-36
2021/03/17 12:30:14;;;;;;;7.60;1.98;;;7.40;51.10;;;;;;5113705;28;20094;-36
2021/03/17 12:32:40;;;;;;;2.75;1.10;;;7.40;51.50;;;;;;5112661;28;20034;-36
2021/03/17 12:35:08;;;;;;;4.15;1.00;;;7.30;53.00;;;;;;5113897;28;20019;-36
2021/03/17 12:37:35;;;;;;;6.28;1.17;;;6.90;54.50;;;;;;5113752;28;20023;-35
2021/03/17 12:40:01;;;;;;;3.70;1.73;;;7.20;53.60;;;;;;5113568;28;20102;-36
2021/03/17 12:42:27;;;;;;;5.25;2.00;;;7.40;52.90;;;;;;5113976;28;20134;-36
2021/03/17 12:44:52;;;;;;;8.40;2.25;;;7.30;53.30;;;;;;5113690;28;20053;-36
2021/03/17 12:47:18;;;;;;;5.63;1.30;;;7.30;53.20;;;;;;5113552;28;20547;-36
2021/03/17 12:49:44;;;;;;;6.88;1.23;;;7.20;52.70;;;;;;5113854;28;20048;-36
2021/03/17 12:52:11;;;;;;;6.78;1.52;;;7.00;52.40;;;;;;5113763;28;20035;-36
2021/03/17 12:54:37;;;;;;;6.28;2.83;;;7.00;53.20;;;;;;5113648;28;20027;-36
2021/03/17 12:57:03;;;;;;;6.70;1.58;;;7.00;53.40;;;;;;5113531;28;20080;-36
2021/03/17 12:59:30;;;;;;;10.38;2.25;;;7.00;53.10;;;;;;5113488;28;20023;-37
2021/03/17 13:01:56;;;;;;;3.05;1.40;;;7.00;52.70;;;;;;5113585;28;20149;-37
2021/03/17 13:04:21;;;;;;;9.98;2.35;;;7.00;53.60;;;;;;5113290;28;20058;-38
2021/03/17 13:06:47;;;;;;;4.15;1.25;;;7.20;53.00;;;;;;5113761;28;20024;-37
2021/03/17 13:09:13;;;;;;;6.07;1.10;;;7.40;53.00;;;;;;5118220;28;20030;-39